Terminal Aerodrome Forecast
Issued by NWS Jacksonville, FL

Current Version | Previous Version | Text Only | Print | Product List | Glossary On
Versions: 1 2 3 4 5 6 7 8 9 10 11 12 13
000
FTUS42 KJAX 202300
TAFGNV
TAF
KGNV 202330Z 2100/2124 00000KT P6SM SCT250
     FM211400 05009KT P6SM FEW030=

USA.gov is the U.S. government's official web portal to all federal, state and local government web resources and services.